Time;durP1;ratioP1;P1;durP2;ratioP2;P2;SDS_P1;SDS_P2;PMS_P1;PMS_P2;Temp;Humidity;BMP_temperature;BMP_pressure;BME280_temperature;BME280_humidity;BME280_pressure;Samples;Min_cycle;Max_cycle;Signal;HPM_P1;HPM_P2
2022/05/19 00:02:16;;;;;;;22.25;15.20;;;;;;;14.92;91.13;101899.22;4983881;28;20018;-72
2022/05/19 00:04:42;;;;;;;25.08;16.40;;;;;;;14.82;89.95;101888.66;4962773;28;20427;-71
2022/05/19 00:07:08;;;;;;;23.60;15.43;;;;;;;15.01;89.17;101905.44;4985284;28;20488;-73
2022/05/19 00:09:34;;;;;;;24.23;16.42;;;;;;;14.97;88.47;101891.59;4984789;28;20101;-71
2022/05/19 00:12:05;;;;;;;22.90;15.73;;;;;;;15.11;88.36;101903.53;4984152;28;20053;-71
2022/05/19 00:14:30;;;;;;;24.50;15.35;;;;;;;15.14;87.97;101900.56;4983626;28;20470;-71
2022/05/19 00:16:57;;;;;;;29.23;16.15;;;;;;;14.97;87.95;101858.88;4965673;28;20072;-72
2022/05/19 00:19:23;;;;;;;22.70;15.68;;;;;;;15.12;88.13;101883.91;4984709;28;20034;-71
2022/05/19 00:21:49;;;;;;;24.08;15.93;;;;;;;15.21;87.40;101893.63;4984644;28;20466;-71
2022/05/19 00:24:15;;;;;;;23.48;16.70;;;;;;;15.23;87.35;101891.66;4983956;28;20113;-71
2022/05/19 00:26:41;;;;;;;20.00;15.95;;;;;;;15.25;87.21;101898.66;4981774;28;20377;-71
2022/05/19 00:29:06;;;;;;;31.27;17.77;;;;;;;15.23;88.12;101888.16;4953474;28;20229;-71
2022/05/19 00:31:32;;;;;;;20.92;16.15;;;;;;;15.22;87.96;101895.31;4981879;28;20034;-73
2022/05/19 00:33:58;;;;;;;24.33;17.20;;;;;;;15.14;88.31;101886.44;4985290;28;20490;-73
2022/05/19 00:36:24;;;;;;;26.15;17.83;;;;;;;15.18;88.37;101887.81;4953867;28;20063;-72
2022/05/19 00:38:49;;;;;;;32.00;17.77;;;;;;;15.21;88.77;101882.16;4970268;28;20026;-71
2022/05/19 00:41:16;;;;;;;30.13;18.45;;;;;;;15.19;88.14;101881.47;4967664;28;20038;-71
2022/05/19 00:43:44;;;;;;;26.55;16.42;;;;;;;15.16;88.51;101879.97;4966457;28;20106;-71
2022/05/19 00:46:12;;;;;;;24.35;16.77;;;;;;;15.19;88.32;101882.31;4966323;28;20035;-71
2022/05/19 00:48:57;;;;;;;21.67;16.30;;;;;;;15.16;88.37;101881.81;4963636;28;20031;-71
2022/05/19 00:51:52;;;;;;;23.00;16.42;;;;;;;15.13;87.99;101876.78;4963060;28;20042;-71
2022/05/19 00:54:29;;;;;;;25.77;16.52;;;;;;;15.10;89.13;101864.63;4957273;28;20046;-71
2022/05/19 00:57:17;;;;;;;22.92;16.30;;;;;;;15.06;88.92;101863.25;4964480;28;20109;-71
2022/05/19 00:59:54;;;;;;;22.08;16.63;;;;;;;14.99;92.07;101856.91;4964142;28;20047;-71
2022/05/19 01:02:24;;;;;;;20.85;14.93;;;;;;;14.97;89.84;101859.72;4966561;28;20025;-71
2022/05/19 01:05:05;;;;;;;25.63;16.38;;;;;;;14.94;90.81;101848.56;4967265;28;20448;-71
2022/05/19 01:07:37;;;;;;;23.35;16.50;;;;;;;14.96;90.55;101846.56;4967517;28;20034;-71
2022/05/19 01:10:05;;;;;;;30.55;18.20;;;;;;;14.95;92.52;101839.59;4966517;28;20041;-71
2022/05/19 01:12:31;;;;;;;30.80;19.52;;;;;;;14.81;93.60;101811.75;4960857;28;20031;-71
2022/05/19 01:15:00;;;;;;;32.03;20.00;;;;;;;14.87;97.43;101831.56;4969057;28;20031;-72
2022/05/19 01:17:25;;;;;;;26.30;17.67;;;;;;;14.84;96.63;101829.22;4952623;28;20039;-72
2022/05/19 01:20:09;;;;;;;25.83;19.83;;;;;;;14.88;95.43;101833.22;4961855;28;20390;-71
2022/05/19 01:22:40;;;;;;;26.98;19.10;;;;;;;14.88;93.15;101835.88;4962642;28;20390;-71
2022/05/19 01:25:08;;;;;;;26.08;17.23;;;;;;;14.88;92.12;101831.41;4961903;28;20034;-71
2022/05/19 01:27:36;;;;;;;26.38;20.42;;;;;;;14.83;91.94;101828.38;4964161;28;20038;-72
2022/05/19 01:30:03;;;;;;;32.38;22.63;;;;;;;14.80;96.80;101836.66;4962093;28;20087;-71
2022/05/19 01:32:30;;;;;;;43.03;25.98;;;;;;;14.71;99.62;101832.25;4962219;28;20038;-72
2022/05/19 01:34:56;;;;;;;38.55;25.13;;;;;;;14.63;100.00;101835.66;4973788;28;20533;-71
2022/05/19 01:37:22;;;;;;;32.65;23.10;;;;;;;14.66;100.00;101839.88;4978986;28;20045;-72
2022/05/19 01:39:53;;;;;;;35.83;24.98;;;;;;;14.63;100.00;101829.53;4984789;28;20034;-71
2022/05/19 01:42:52;;;;;;;37.15;26.02;;;;;;;14.64;100.00;101837.34;4983274;28;20487;-71
2022/05/19 01:45:41;;;;;;;39.72;25.88;;;;;;;14.60;100.00;101830.66;4982016;28;20023;-71
2022/05/19 01:48:13;;;;;;;31.58;25.75;;;;;;;14.58;100.00;101836.13;4980465;28;20445;-71
2022/05/19 01:50:47;;;;;;;32.28;25.95;;;;;;;14.58;100.00;101827.31;4985595;28;20034;-71
2022/05/19 01:53:36;;;;;;;41.83;28.35;;;;;;;14.46;100.00;101825.84;4979535;28;20038;-71
2022/05/19 01:56:31;;;;;;;40.15;29.27;;;;;;;14.29;100.00;101815.06;4985175;28;20018;-71
2022/05/19 01:59:09;;;;;;;40.97;29.38;;;;;;;14.25;100.00;101821.66;4978172;28;20116;-71
2022/05/19 02:01:35;;;;;;;44.33;28.15;;;;;;;14.28;100.00;101825.84;4979456;28;20024;-71
2022/05/19 02:04:10;;;;;;;40.38;28.05;;;;;;;14.30;100.00;101824.69;4967434;28;20038;-71
2022/05/19 02:06:43;;;;;;;37.80;25.38;;;;;;;14.32;100.00;101820.06;4965336;28;20035;-71
2022/05/19 02:09:34;;;;;;;33.75;21.73;;;;;;;14.43;100.00;101818.19;4977901;28;20498;-71
2022/05/19 02:12:01;;;;;;;;;;;;;;;14.51;100.00;101810.31;4971179;28;20502;-70
2022/05/19 02:14:36;;;;;;;37.28;23.55;;;;;;;14.57;100.00;101799.94;4980574;28;20320;-71
2022/05/19 02:17:05;;;;;;;38.38;25.30;;;;;;;14.55;100.00;101796.59;4979525;28;20034;-71
2022/05/19 02:19:44;;;;;;;37.10;25.92;;;;;;;14.56;100.00;101798.25;4981353;28;20486;-71
2022/05/19 02:22:13;;;;;;;38.25;24.58;;;;;;;14.57;100.00;101804.41;4980576;28;20381;-71
2022/05/19 02:24:46;;;;;;;32.55;25.45;;;;;;;14.45;100.00;101777.19;4980077;28;20040;-72
2022/05/19 02:27:34;;;;;;;37.13;25.65;;;;;;;14.44;100.00;101793.28;4981001;28;20092;-72
2022/05/19 02:30:06;;;;;;;38.67;25.73;;;;;;;14.45;100.00;101794.97;4979519;28;20022;-71
2022/05/19 02:32:32;;;;;;;35.53;23.67;;;;;;;14.31;100.00;101775.94;4986010;28;20379;-71
2022/05/19 02:34:58;;;;;;;37.10;27.75;;;;;;;14.38;100.00;101784.94;4980026;28;20059;-71
2022/05/19 02:37:23;;;;;;;37.97;24.75;;;;;;;14.40;100.00;101787.47;4978165;28;20050;-72
2022/05/19 02:39:49;;;;;;;47.63;26.75;;;;;;;14.46;100.00;101780.69;4984543;28;20073;-71
2022/05/19 02:42:15;;;;;;;51.25;27.20;;;;;;;14.47;100.00;101775.22;4985685;28;20030;-71
2022/05/19 02:44:40;;;;;;;39.47;25.85;;;;;;;14.48;100.00;101778.72;4985976;28;20042;-73
2022/05/19 02:47:06;;;;;;;40.20;25.80;;;;;;;14.36;100.00;101760.38;4956481;28;20038;-71
2022/05/19 02:49:32;;;;;;;41.65;28.42;;;;;;;14.46;100.00;101770.06;4966088;28;20549;-71
2022/05/19 02:51:57;;;;;;;44.25;28.85;;;;;;;14.46;100.00;101780.69;4986116;28;20126;-71
2022/05/19 02:54:22;;;;;;;42.15;29.45;;;;;;;14.40;100.00;101776.84;4986023;28;20070;-71
2022/05/19 02:56:48;;;;;;;50.08;30.48;;;;;;;14.33;100.00;101766.00;4967817;28;20068;-70
2022/05/19 02:59:14;;;;;;;46.40;30.15;;;;;;;14.36;100.00;101776.28;4980425;28;20088;-71
2022/05/19 03:01:39;;;;;;;43.17;31.35;;;;;;;14.33;100.00;101775.78;4989456;28;20536;-71
2022/05/19 03:04:05;;;;;;;49.55;34.22;;;;;;;14.27;100.00;101763.94;4982368;28;20042;-71
2022/05/19 03:06:30;;;;;;;48.67;33.97;;;;;;;14.27;100.00;101771.09;4981438;28;20026;-71
2022/05/19 03:08:55;;;;;;;48.53;33.30;;;;;;;14.24;100.00;101766.91;4980672;28;20109;-72
2022/05/19 03:11:21;;;;;;;54.25;34.83;;;;;;;14.26;100.00;101770.22;4982365;28;20022;-71
2022/05/19 03:13:46;;;;;;;54.30;31.20;;;;;;;14.33;100.00;101773.97;4979793;28;20030;-72
2022/05/19 03:16:12;;;;;;;52.90;34.65;;;;;;;14.38;100.00;101774.31;4964407;28;20034;-71
2022/05/19 03:18:37;;;;;;;53.00;35.65;;;;;;;14.40;100.00;101760.91;4986008;28;20313;-72
2022/05/19 03:21:03;;;;;;;57.35;37.15;;;;;;;14.39;100.00;101760.06;4960939;28;20030;-72
2022/05/19 03:23:28;;;;;;;50.05;34.35;;;;;;;14.43;100.00;101765.06;4986154;28;20486;-72
2022/05/19 03:25:54;;;;;;;55.33;36.05;;;;;;;14.45;100.00;101758.63;4966146;28;20042;-71
2022/05/19 03:28:20;;;;;;;51.55;35.17;;;;;;;14.49;100.00;101753.84;4980680;28;20041;-70
2022/05/19 03:30:45;;;;;;;52.13;35.67;;;;;;;14.52;100.00;101758.84;4979794;28;20022;-72
2022/05/19 03:33:11;;;;;;;57.33;36.97;;;;;;;14.47;100.00;101750.50;4984257;28;20053;-72
2022/05/19 03:35:36;;;;;;;61.88;37.90;;;;;;;14.52;100.00;101762.31;4984138;28;20046;-72
2022/05/19 03:38:02;;;;;;;58.70;38.92;;;;;;;14.56;100.00;101754.91;4983417;28;20026;-71
2022/05/19 03:40:27;;;;;;;63.53;40.00;;;;;;;14.60;100.00;101758.94;4984343;28;20136;-72
2022/05/19 03:42:52;;;;;;;66.47;39.75;;;;;;;14.65;100.00;101755.81;4988135;28;20038;-71
2022/05/19 03:45:18;;;;;;;62.13;40.03;;;;;;;14.65;100.00;101753.97;4990761;28;20561;-72
2022/05/19 03:47:43;;;;;;;61.85;41.72;;;;;;;14.70;100.00;101757.03;4944314;28;20057;-72
2022/05/19 03:50:09;;;;;;;69.20;43.88;;;;;;;14.71;100.00;101742.75;4963946;28;20031;-72
2022/05/19 03:52:36;;;;;;;69.80;45.33;;;;;;;14.70;100.00;101730.47;4981099;28;20082;-70
2022/05/19 03:55:02;;;;;;;74.45;45.63;;;;;;;14.82;100.00;101747.78;4953428;28;20030;-72
2022/05/19 03:57:28;;;;;;;87.38;44.80;;;;;;;14.88;100.00;101748.19;4960112;28;20461;-72
2022/05/19 03:59:53;;;;;;;75.15;45.80;;;;;;;14.93;100.00;101741.38;4975988;28;20026;-72
2022/05/19 04:02:18;;;;;;;70.75;43.85;;;;;;;14.94;100.00;101736.94;4982479;28;20022;-72
2022/05/19 04:04:44;;;;;;;75.15;44.70;;;;;;;14.94;100.00;101742.25;4980380;28;20053;-72
2022/05/19 04:07:09;;;;;;;73.85;43.33;;;;;;;15.00;100.00;101742.44;4976691;28;20022;-71
2022/05/19 04:09:35;;;;;;;66.70;43.15;;;;;;;14.99;100.00;101732.78;4981842;28;20030;-71
2022/05/19 04:12:00;;;;;;;71.85;46.63;;;;;;;15.01;100.00;101741.44;4976763;28;20025;-71
2022/05/19 04:14:27;;;;;;;85.47;45.22;;;;;;;15.04;100.00;101740.28;4982844;28;20037;-71
2022/05/19 04:16:53;;;;;;;76.00;44.85;;;;;;;15.10;100.00;101741.50;4973533;28;20184;-71
2022/05/19 04:19:19;;;;;;;65.93;41.22;;;;;;;15.05;100.00;101712.72;4978828;28;20031;-70
2022/05/19 04:21:44;;;;;;;69.93;43.80;;;;;;;15.15;100.00;101726.72;4973501;28;20037;-72
2022/05/19 04:24:11;;;;;;;68.90;42.55;;;;;;;15.21;100.00;101726.09;4937956;28;20045;-70
2022/05/19 04:26:37;;;;;;;70.28;41.95;;;;;;;15.16;100.00;101720.44;4975331;28;20040;-71
2022/05/19 04:29:02;;;;;;;66.10;41.65;;;;;;;15.26;100.00;101724.78;4973999;28;20034;-71
2022/05/19 04:31:28;;;;;;;74.90;42.90;;;;;;;15.28;100.00;101720.16;4968425;28;20233;-72
2022/05/19 04:33:53;;;;;;;68.28;43.70;;;;;;;15.26;100.00;101714.16;4984975;28;20026;-72
2022/05/19 04:36:18;;;;;;;72.95;42.88;;;;;;;14.86;100.00;101655.31;4976180;28;20054;-71
2022/05/19 04:38:44;;;;;;;64.03;42.80;;;;;;;15.22;100.00;101709.16;4963869;28;20504;-72
2022/05/19 04:41:09;;;;;;;64.68;41.50;;;;;;;15.26;100.00;101709.66;4979918;28;20482;-71
2022/05/19 04:43:35;;;;;;;72.80;43.20;;;;;;;15.37;100.00;101704.06;4976975;28;20077;-71
2022/05/19 04:46:00;;;;;;;65.95;42.97;;;;;;;15.43;100.00;101703.41;4972903;28;20031;-71
2022/05/19 04:48:26;;;;;;;64.55;41.63;;;;;;;15.57;100.00;101709.09;4982538;28;20105;-71
2022/05/19 04:50:57;;;;;;;54.85;38.92;;;;;;;15.69;100.00;101710.47;4958854;28;20039;-70
2022/05/19 04:53:24;;;;;;;55.63;36.88;;;;;;;15.82;100.00;101710.88;4978969;28;20073;-70
2022/05/19 04:55:52;;;;;;;53.45;34.28;;;;;;;15.89;100.00;101686.25;4986003;28;20069;-70
2022/05/19 04:58:17;;;;;;;49.40;32.90;;;;;;;16.08;100.00;101693.13;4963890;28;20088;-71
2022/05/19 05:00:43;;;;;;;53.28;32.92;;;;;;;16.12;100.00;101684.63;4982946;28;20035;-70
2022/05/19 05:03:08;;;;;;;46.40;32.33;;;;;;;16.12;100.00;101670.47;4983311;28;20117;-71
2022/05/19 05:05:35;;;;;;;54.97;33.53;;;;;;;16.24;100.00;101679.78;4952721;28;20034;-72
2022/05/19 05:08:00;;;;;;;49.55;32.33;;;;;;;16.35;100.00;101689.28;4982214;28;20041;-73
2022/05/19 05:10:25;;;;;;;44.70;30.27;;;;;;;16.23;100.00;101686.94;4961543;28;20035;-71
2022/05/19 05:12:51;;;;;;;47.33;30.98;;;;;;;16.45;100.00;101721.91;4959902;28;20039;-72
2022/05/19 05:15:16;;;;;;;36.63;26.50;;;;;;;16.47;100.00;101679.13;4977409;28;20057;-70
2022/05/19 05:17:42;;;;;;;37.75;26.80;;;;;;;16.66;100.00;101713.41;4968393;28;20087;-70
2022/05/19 05:20:09;;;;;;;36.38;26.42;;;;;;;16.79;100.00;101700.38;4974029;28;20027;-70
2022/05/19 05:22:36;;;;;;;38.92;26.90;;;;;;;16.71;100.00;101672.91;4979797;28;20398;-71
2022/05/19 05:25:06;;;;;;;42.53;28.20;;;;;;;16.95;100.00;101696.03;4958304;28;20037;-73
2022/05/19 05:27:31;;;;;;;41.75;28.08;;;;;;;17.04;100.00;101711.81;4982649;28;20485;-72
2022/05/19 05:29:56;;;;;;;43.72;28.77;;;;;;;17.22;100.00;101708.97;4978187;28;20031;-72
2022/05/19 05:32:22;;;;;;;44.67;29.30;;;;;;;17.34;100.00;101716.56;4984009;28;20070;-72
2022/05/19 05:34:47;;;;;;;42.38;29.85;;;;;;;17.47;99.42;101730.19;4981832;28;20047;-71
2022/05/19 05:37:12;;;;;;;45.92;32.08;;;;;;;17.43;98.69;101739.53;4972659;28;20501;-72
2022/05/19 05:39:38;;;;;;;42.45;29.58;;;;;;;17.55;98.88;101753.31;4972964;28;20542;-72
2022/05/19 05:42:04;;;;;;;42.00;30.38;;;;;;;17.59;99.63;101751.97;4961089;28;20390;-72
2022/05/19 05:44:30;;;;;;;41.67;31.88;;;;;;;17.89;99.07;101774.38;4953680;28;20446;-73
2022/05/19 05:46:56;;;;;;;44.35;31.27;;;;;;;17.91;97.75;101771.53;4975978;28;20116;-72
2022/05/19 05:49:21;;;;;;;40.65;30.30;;;;;;;17.96;97.47;101783.34;4966874;28;20109;-73
2022/05/19 05:51:48;;;;;;;44.35;32.03;;;;;;;17.98;97.45;101789.34;4960549;28;20532;-72
2022/05/19 05:54:13;;;;;;;47.97;32.78;;;;;;;18.14;97.36;101798.25;4964386;28;20084;-72
2022/05/19 05:56:38;;;;;;;42.28;30.02;;;;;;;18.31;96.60;101805.16;4974819;28;20026;-73
2022/05/19 05:59:04;;;;;;;45.60;32.63;;;;;;;18.66;96.15;101808.25;4975272;28;20044;-73
2022/05/19 06:01:29;;;;;;;44.80;30.83;;;;;;;18.91;95.15;101812.41;4973265;28;20027;-73
2022/05/19 06:03:55;;;;;;;44.38;30.98;;;;;;;19.23;93.02;101810.41;4955507;28;20486;-73
2022/05/19 06:06:20;;;;;;;38.00;27.70;;;;;;;19.39;90.83;101803.22;4972264;28;20034;-73
2022/05/19 06:08:46;;;;;;;37.22;25.85;;;;;;;19.42;89.88;101818.91;4981306;28;20019;-72
2022/05/19 06:11:12;;;;;;;47.00;26.75;;;;;;;19.70;89.17;101827.97;4976654;28;20038;-72
2022/05/19 06:13:38;;;;;;;37.10;26.33;;;;;;;19.90;88.08;101822.00;4953020;28;20095;-72
2022/05/19 06:16:03;;;;;;;33.08;23.02;;;;;;;20.22;86.38;101810.00;4972285;28;20398;-73
2022/05/19 06:18:29;;;;;;;31.30;22.17;;;;;;;20.34;84.73;101802.31;4950776;28;20126;-73
2022/05/19 06:20:54;;;;;;;31.10;21.88;;;;;;;20.42;84.03;101812.88;4968605;28;20335;-73
2022/05/19 06:23:20;;;;;;;29.17;19.42;;;;;;;20.56;83.25;101800.44;4950930;28;20098;-73
2022/05/19 06:25:46;;;;;;;28.23;19.55;;;;;;;20.82;82.94;101807.91;4986446;28;20038;-73
2022/05/19 06:28:12;;;;;;;28.38;19.42;;;;;;;21.04;81.88;101800.66;4967135;28;20069;-73
2022/05/19 06:30:38;;;;;;;24.90;18.88;;;;;;;21.11;79.62;101785.41;4966871;28;20577;-72
2022/05/19 06:33:05;;;;;;;29.25;19.88;;;;;;;21.40;79.16;101791.53;4959405;28;20497;-72
2022/05/19 06:35:32;;;;;;;25.67;19.27;;;;;;;21.40;78.86;101802.28;4985077;28;20137;-72
2022/05/19 06:37:57;;;;;;;25.45;19.52;;;;;;;21.40;78.12;101806.84;4980422;28;20038;-73
2022/05/19 06:40:26;;;;;;;25.42;18.40;;;;;;;21.37;78.47;101811.56;4978213;28;20093;-73
2022/05/19 06:42:53;;;;;;;23.52;18.95;;;;;;;21.34;79.11;101803.94;4963152;28;20031;-73
2022/05/19 06:45:25;;;;;;;24.48;19.25;;;;;;;21.30;78.03;101797.28;4968278;28;20037;-73
2022/05/19 06:47:52;;;;;;;18.73;15.80;;;;;;;21.20;78.43;101791.44;4975766;28;20144;-73
2022/05/19 06:50:20;;;;;;;23.67;15.82;;;;;;;21.39;77.94;101778.34;4954531;28;20027;-74
2022/05/19 06:52:50;;;;;;;19.52;15.13;;;;;;;21.63;78.31;101780.53;4984829;28;20073;-71
2022/05/19 06:55:17;;;;;;;20.75;15.48;;;;;;;21.74;77.01;101771.06;4972362;28;20026;-74
2022/05/19 06:57:43;;;;;;;21.88;15.43;;;;;;;21.81;76.08;101773.78;4974073;28;20056;-73
2022/05/19 07:00:13;;;;;;;19.77;14.52;;;;;;;22.01;76.09;101769.28;4978961;28;20092;-73
2022/05/19 07:02:43;;;;;;;18.13;14.45;;;;;;;22.15;75.08;101754.84;4983379;28;20041;-73
2022/05/19 07:05:09;;;;;;;19.40;14.90;;;;;;;22.03;75.09;101769.91;4982627;28;20436;-73
2022/05/19 07:07:35;;;;;;;19.08;14.68;;;;;;;21.68;76.41;101766.50;4980047;28;20034;-73
2022/05/19 07:10:01;;;;;;;19.65;14.50;;;;;;;21.41;76.12;101763.72;4982439;28;20081;-73
2022/05/19 07:12:26;;;;;;;22.27;15.13;;;;;;;21.37;76.34;101765.94;4981518;28;20050;-72
2022/05/19 07:14:52;;;;;;;20.77;15.02;;;;;;;21.03;78.51;101765.94;4972773;28;20109;-73
2022/05/19 07:17:18;;;;;;;19.83;15.77;;;;;;;20.69;80.51;101805.94;4974473;28;20049;-73
2022/05/19 07:22:29;;;;;;;17.48;12.48;;;;;;;20.35;81.34;101793.22;4967435;28;20042;-73
2022/05/19 07:24:54;;;;;;;20.67;11.68;;;;;;;20.26;82.72;101757.69;4953001;28;20039;-77
2022/05/19 07:27:20;;;;;;;16.92;9.35;;;;;;;19.99;84.78;101761.09;4991513;28;20031;-75
2022/05/19 07:29:45;;;;;;;17.70;7.03;;;;;;;19.85;86.68;101769.00;4983967;28;20026;-75
2022/05/19 07:32:11;;;;;;;11.32;5.75;;;;;;;19.92;87.26;101777.13;4992488;28;20042;-74
2022/05/19 07:34:38;;;;;;;9.63;5.80;;;;;;;19.86;87.65;101777.88;4973070;28;20094;-73
2022/05/19 07:37:04;;;;;;;10.13;5.47;;;;;;;19.78;87.25;101791.41;4978462;28;20075;-73
2022/05/19 07:39:30;;;;;;;11.98;6.05;;;;;;;19.71;87.09;101786.78;4974278;28;20070;-73
2022/05/19 07:41:56;;;;;;;8.93;5.85;;;;;;;19.80;88.20;101802.75;4988065;28;20109;-73
2022/05/19 07:44:24;;;;;;;10.93;6.45;;;;;;;19.96;87.21;101794.47;4957410;28;20125;-73
2022/05/19 07:46:50;;;;;;;14.48;7.07;;;;;;;20.03;86.89;101799.91;4977693;28;20046;-73
2022/05/19 07:49:16;;;;;;;15.50;7.20;;;;;;;20.11;85.01;101800.63;4976967;28;20490;-73
2022/05/19 07:51:44;;;;;;;10.32;6.72;;;;;;;20.28;84.75;101803.06;4972601;28;20496;-73
2022/05/19 07:54:13;;;;;;;12.38;8.00;;;;;;;20.10;85.78;101806.19;4980576;28;20031;-73
2022/05/19 07:56:39;;;;;;;9.38;7.65;;;;;;;19.90;86.06;101811.28;4980331;28;20391;-73
2022/05/19 07:59:06;;;;;;;12.43;8.38;;;;;;;19.78;85.54;101804.78;4978482;28;20037;-73
2022/05/19 08:01:32;;;;;;;13.00;8.55;;;;;;;19.93;85.04;101798.38;4975577;28;20037;-73
2022/05/19 08:03:58;;;;;;;13.45;8.38;;;;;;;20.21;85.67;101786.94;4984552;28;20393;-73
2022/05/19 08:06:24;;;;;;;12.07;8.50;;;;;;;20.35;84.82;101788.69;4980714;28;20046;-73
2022/05/19 08:08:50;;;;;;;14.27;8.65;;;;;;;20.51;84.06;101789.44;4973647;28;20042;-73
2022/05/19 08:11:16;;;;;;;16.38;8.32;;;;;;;20.56;83.37;101787.03;4963410;28;20060;-73
2022/05/19 08:16:25;;;;;;;13.38;9.45;;;;;;;20.47;83.19;101796.22;4980543;28;20486;-73
2022/05/19 08:18:50;;;;;;;17.05;9.63;;;;;;;20.19;84.63;101790.81;4973066;28;20034;-73
2022/05/19 08:21:17;;;;;;;16.63;9.65;;;;;;;20.34;83.73;101807.69;4979782;28;20072;-73
2022/05/19 08:23:45;;;;;;;13.55;8.20;;;;;;;20.36;83.20;101805.63;4958188;28;20023;-72
2022/05/19 08:26:12;;;;;;;11.68;7.72;;;;;;;20.17;83.44;101800.91;4981459;28;20077;-73
2022/05/19 08:28:40;;;;;;;13.60;8.68;;;;;;;20.13;83.51;101806.63;4977861;28;20268;-73
2022/05/19 08:31:10;;;;;;;11.40;8.57;;;;;;;20.20;84.91;101792.47;4980596;28;20413;-73
2022/05/19 08:33:36;;;;;;;15.27;9.30;;;;;;;20.22;84.09;101760.94;4978618;28;20030;-73
2022/05/19 08:36:03;;;;;;;17.40;9.68;;;;;;;20.21;84.40;101780.72;4956223;28;20073;-74
2022/05/19 08:38:29;;;;;;;9.40;7.90;;;;;;;19.98;85.16;101760.28;4962988;28;20026;-74
2022/05/19 08:41:08;;;;;;;11.07;8.00;;;;;;;20.09;84.72;101770.50;4955554;28;20077;-73
2022/05/19 08:43:48;;;;;;;14.60;8.15;;;;;;;20.09;85.60;101783.06;4977417;28;20018;-72
2022/05/19 08:46:23;;;;;;;13.48;7.72;;;;;;;19.53;85.92;101811.25;4959716;28;20027;-73
2022/05/19 08:48:52;;;;;;;14.23;9.25;;;;;;;19.31;88.76;101821.03;4970899;28;20034;-73
2022/05/19 08:51:17;;;;;;;16.67;8.68;;;;;;;19.06;88.68;101819.63;4979376;28;20408;-73
2022/05/19 08:53:43;;;;;;;12.40;8.85;;;;;;;19.11;90.63;101812.69;4975522;28;20384;-73
2022/05/19 08:56:27;;;;;;;18.23;8.93;;;;;;;19.06;91.49;101815.09;4979888;28;20030;-73
2022/05/19 08:59:19;;;;;;;16.10;9.15;;;;;;;18.69;92.51;101797.19;4978264;28;20031;-73
2022/05/19 09:02:01;;;;;;;14.60;8.00;;;;;;;18.87;91.56;101803.06;4966315;28;20096;-73
2022/05/19 09:05:06;;;;;;;13.05;7.57;;;;;;;19.10;89.58;101799.53;4977457;28;20116;-73
2022/05/19 09:07:57;;;;;;;15.68;7.22;;;;;;;19.33;89.21;101794.06;4978777;28;20357;-73
2022/05/19 09:10:42;;;;;;;14.50;7.10;;;;;;;19.27;87.20;101781.41;4981756;28;20509;-73
2022/05/19 09:13:16;;;;;;;17.95;6.70;;;;;;;19.73;85.75;101783.94;4978375;28;20084;-73
2022/05/19 09:15:44;;;;;;;12.65;6.10;;;;;;;20.73;83.19;101782.22;4980230;28;20377;-73
2022/05/19 09:18:12;;;;;;;14.10;6.78;;;;;;;21.46;79.13;101793.47;4983619;28;20501;-73
2022/05/19 09:20:44;;;;;;;15.95;6.82;;;;;;;21.41;78.91;101781.66;4957513;28;20026;-73
2022/05/19 09:23:10;;;;;;;14.15;6.60;;;;;;;22.19;76.16;101777.59;4980832;28;20027;-72
2022/05/19 09:25:45;;;;;;;11.65;6.10;;;;;;;21.81;77.84;101758.47;4959035;28;20030;-73
2022/05/19 09:28:12;;;;;;;13.63;6.70;;;;;;;22.31;74.52;101772.47;4980056;28;20034;-73
2022/05/19 09:30:50;;;;;;;12.93;6.32;;;;;;;22.41;75.06;101761.31;4969384;28;20027;-75
2022/05/19 09:33:39;;;;;;;10.95;6.50;;;;;;;21.95;74.96;101772.78;4981401;28;20514;-74
2022/05/19 09:36:11;;;;;;;10.18;6.38;;;;;;;22.42;75.27;101775.56;4976730;28;20061;-74
2022/05/19 09:38:43;;;;;;;9.88;6.25;;;;;;;23.13;72.98;101777.63;4978134;28;20106;-73
2022/05/19 09:41:32;;;;;;;20.13;6.70;;;;;;;23.72;71.61;101783.84;4979258;28;20034;-74
2022/05/19 09:43:59;;;;;;;13.00;6.65;;;;;;;24.29;69.28;101789.31;4980425;28;20019;-74
2022/05/19 09:46:36;;;;;;;10.38;6.60;;;;;;;25.11;66.95;101811.69;4982361;28;20121;-74
2022/05/19 09:49:06;;;;;;;13.93;6.50;;;;;;;25.22;67.01;101800.19;4979381;28;20029;-73
2022/05/19 09:51:47;;;;;;;12.30;6.32;;;;;;;24.63;66.97;101802.38;4978059;28;20030;-74
2022/05/19 09:54:15;;;;;;;12.38;6.47;;;;;;;24.89;66.08;101819.41;4978241;28;20034;-74
2022/05/19 09:56:49;;;;;;;9.35;6.15;;;;;;;24.32;67.98;101810.47;4982113;28;20045;-73
2022/05/19 09:59:22;;;;;;;10.70;6.93;;;;;;;24.12;68.75;101805.19;4975345;28;20049;-73
2022/05/19 10:02:00;;;;;;;10.63;6.68;;;;;;;23.69;68.97;101806.66;4976988;28;20042;-74
2022/05/19 10:04:32;;;;;;;12.57;7.20;;;;;;;23.72;70.33;101795.44;4978679;28;20072;-73
2022/05/19 10:07:17;;;;;;;10.02;6.40;;;;;;;24.01;70.22;101782.44;4983659;28;20427;-74
2022/05/19 10:09:47;;;;;;;10.40;7.15;;;;;;;24.20;68.50;101784.19;4976787;28;20050;-73
2022/05/19 10:12:19;;;;;;;15.87;7.50;;;;;;;24.63;68.10;101775.38;4961135;28;20497;-72
2022/05/19 10:14:51;;;;;;;12.20;8.50;;;;;;;24.72;69.36;101772.41;4979139;28;20030;-73
2022/05/19 10:17:35;;;;;;;12.82;8.85;;;;;;;25.08;67.00;101757.28;4976662;28;20316;-73
2022/05/19 10:20:21;;;;;;;9.27;6.65;;;;;;;24.90;67.35;101760.81;4960305;28;20022;-72
2022/05/19 10:22:56;;;;;;;12.63;8.75;;;;;;;24.94;67.32;101753.91;4979319;28;20023;-72
2022/05/19 10:25:39;;;;;;;16.05;7.95;;;;;;;25.28;66.30;101744.41;4979268;28;20371;-73
2022/05/19 10:31:18;;;;;;;14.93;6.35;;;;;;;25.60;64.93;101703.66;4977431;28;20076;-73
2022/05/19 10:34:15;;;;;;;8.05;5.70;;;;;;;25.63;66.05;101704.03;4978896;28;20108;-72
2022/05/19 10:37:14;;;;;;;10.77;6.00;;;;;;;24.96;66.84;101705.91;4979128;28;20039;-72
2022/05/19 10:39:50;;;;;;;11.43;7.15;;;;;;;24.69;67.75;101706.16;4979590;28;20597;-72
2022/05/19 10:42:27;;;;;;;13.73;7.38;;;;;;;25.35;65.73;101690.31;4979796;28;20041;-73
2022/05/19 10:45:17;;;;;;;11.20;8.30;;;;;;;25.39;64.89;101697.72;4977632;28;20023;-72
2022/05/19 10:47:51;;;;;;;11.10;6.60;;;;;;;26.52;62.26;101689.72;4975427;28;20035;-72
2022/05/19 10:50:26;;;;;;;11.00;7.93;;;;;;;27.15;60.83;101684.59;4972847;28;20478;-72
2022/05/19 10:53:16;;;;;;;13.07;8.25;;;;;;;27.21;59.75;101689.91;4980267;28;20015;-72
2022/05/19 10:56:22;;;;;;;13.35;9.00;;;;;;;26.21;63.05;101677.38;4977038;28;20244;-72
2022/05/19 10:59:03;;;;;;;11.00;6.38;;;;;;;26.62;61.73;101678.34;4917239;29;20036;-73
2022/05/19 11:01:47;;;;;;;10.40;7.13;;;;;;;25.94;63.78;101682.41;4919621;29;20024;-72
2022/05/19 11:04:48;;;;;;;11.52;6.82;;;;;;;25.65;64.55;101680.31;4920928;29;20126;-72
2022/05/19 11:07:33;;;;;;;10.43;7.07;;;;;;;24.71;65.11;101657.38;4915843;29;20047;-72
2022/05/19 11:10:18;;;;;;;9.23;5.72;;;;;;;24.55;65.63;101645.31;4922004;29;20567;-72
2022/05/19 11:12:59;;;;;;;10.52;7.07;;;;;;;23.94;67.99;101630.69;4923594;29;20060;-72
2022/05/19 11:15:54;;;;;;;;;;;;;;;24.56;67.73;101631.59;4919801;29;20143;-72
2022/05/19 11:18:28;;;;;;;10.77;6.32;;;;;;;25.61;62.96;101614.25;4912125;29;19950;-74
2022/05/19 11:20:54;;;;;;;7.15;5.65;;;;;;;26.36;61.13;101609.25;4919003;29;20152;-72
2022/05/19 11:23:33;;;;;;;8.68;5.28;;;;;;;27.13;59.08;101613.56;4918102;29;20122;-73
2022/05/19 11:26:23;;;;;;;9.52;6.72;;;;;;;26.56;61.46;101604.31;4917896;29;20036;-72
2022/05/19 11:29:13;;;;;;;8.07;5.85;;;;;;;27.17;57.26;101612.00;4920704;29;20404;-73
2022/05/19 11:32:01;;;;;;;9.70;5.80;;;;;;;26.56;60.57;101582.66;4915527;29;20131;-72
2022/05/19 11:34:45;;;;;;;10.07;8.55;;;;;;;27.27;58.24;101588.66;4958423;28;20048;-72